createdAt,value
2022-10-24T00:03:11.417Z,8.03
2022-10-24T00:05:48.377Z,8.23
2022-10-24T00:08:21.570Z,9.13
2022-10-24T00:11:00.415Z,7.90
2022-10-24T00:13:37.889Z,6.65
2022-10-24T00:18:57.348Z,11.25
2022-10-24T00:21:34.250Z,9.63
2022-10-24T00:24:11.090Z,10.08
2022-10-24T00:26:50.383Z,8.70
2022-10-24T00:29:25.040Z,8.15
2022-10-24T00:32:00.345Z,8.53
2022-10-24T00:34:33.457Z,8.20
2022-10-24T00:37:09.331Z,9.63
2022-10-24T00:39:42.365Z,8.73
2022-10-24T00:42:15.555Z,8.88
2022-10-24T00:44:51.126Z,7.95
2022-10-24T00:47:27.090Z,9.28
2022-10-24T00:50:03.205Z,8.98
2022-10-24T00:52:47.794Z,9.78
2022-10-24T00:55:22.881Z,8.45
2022-10-24T00:58:05.483Z,9.18
2022-10-24T01:00:42.130Z,9.00
2022-10-24T01:03:15.755Z,9.88
2022-10-24T01:05:57.898Z,8.30
2022-10-24T01:08:34.358Z,8.65
2022-10-24T01:11:12.341Z,8.68
2022-10-24T01:16:38.013Z,8.38
2022-10-24T01:19:19.615Z,6.78
2022-10-24T01:22:05.598Z,10.35
2022-10-24T01:24:51.824Z,10.53
2022-10-24T01:27:44.521Z,8.20
2022-10-24T01:30:21.999Z,9.65
2022-10-24T01:33:01.455Z,10.43
2022-10-24T01:35:41.205Z,10.45
2022-10-24T01:38:18.508Z,8.83
2022-10-24T01:40:58.461Z,10.80
2022-10-24T01:43:37.485Z,9.90
2022-10-24T01:46:13.789Z,10.63
2022-10-24T01:49:07.333Z,10.82
2022-10-24T01:51:44.697Z,9.78
2022-10-24T01:54:18.465Z,10.50
2022-10-24T01:56:58.255Z,8.28
2022-10-24T01:59:46.744Z,10.82
2022-10-24T02:02:26.663Z,7.75
2022-10-24T02:05:05.711Z,10.88
2022-10-24T02:07:46.406Z,12.15
2022-10-24T02:10:29.926Z,9.08
2022-10-24T02:15:49.726Z,9.93
2022-10-24T02:18:26.723Z,10.98
2022-10-24T02:21:03.012Z,10.38
2022-10-24T02:23:43.634Z,12.35
2022-10-24T02:26:19.800Z,11.90
2022-10-24T02:28:59.049Z,9.80
2022-10-24T02:31:35.811Z,11.85
2022-10-24T02:36:48.362Z,10.85
2022-10-24T02:39:23.504Z,10.13
2022-10-24T02:42:01.930Z,12.03
2022-10-24T02:44:47.327Z,11.30
2022-10-24T02:47:23.057Z,12.93
2022-10-24T02:49:56.959Z,11.78
2022-10-24T02:52:31.123Z,10.25
2022-10-24T02:55:07.928Z,14.58
2022-10-24T02:57:41.265Z,9.58
2022-10-24T03:03:23.390Z,12.85
2022-10-24T03:05:56.464Z,12.90
2022-10-24T03:08:30.944Z,13.38
2022-10-24T03:11:08.951Z,8.98
2022-10-24T03:13:42.143Z,8.58
2022-10-24T03:16:15.378Z,8.45
2022-10-24T03:18:51.159Z,9.63
2022-10-24T03:21:25.497Z,10.32
2022-10-24T03:24:01.077Z,11.12
2022-10-24T03:26:40.031Z,11.33
2022-10-24T03:29:14.208Z,9.88
2022-10-24T03:32:00.546Z,9.53
2022-10-24T03:34:35.465Z,7.67
2022-10-24T03:37:11.523Z,9.18
2022-10-24T03:39:46.317Z,10.13
2022-10-24T03:42:22.490Z,8.85
2022-10-24T03:44:57.005Z,9.83
2022-10-24T03:47:39.252Z,8.25
2022-10-24T03:50:13.204Z,8.65
2022-10-24T03:52:50.220Z,7.85
2022-10-24T03:55:27.417Z,7.08
2022-10-24T03:58:00.814Z,7.60
2022-10-24T04:00:40.810Z,6.87
2022-10-24T04:03:16.710Z,6.75
2022-10-24T04:05:49.953Z,7.35
2022-10-24T04:08:27.013Z,7.42
2022-10-24T04:11:00.144Z,6.75
2022-10-24T04:13:34.904Z,7.22
2022-10-24T04:16:14.354Z,7.92
2022-10-24T04:18:55.845Z,7.62
2022-10-24T04:21:32.483Z,6.42
2022-10-24T04:24:08.980Z,7.12
2022-10-24T04:26:46.763Z,6.50
2022-10-24T04:29:21.274Z,6.20
2022-10-24T04:31:54.451Z,6.55
2022-10-24T04:34:33.048Z,6.30
2022-10-24T04:37:09.717Z,4.92
2022-10-24T04:39:47.696Z,5.87
2022-10-24T04:42:26.141Z,4.70
2022-10-24T04:45:03.828Z,5.42
2022-10-24T04:47:38.048Z,4.05
2022-10-24T04:50:15.168Z,5.53
2022-10-24T04:52:52.910Z,5.60
2022-10-24T04:55:28.780Z,6.12
2022-10-24T04:58:26.393Z,5.45
2022-10-24T05:01:03.273Z,5.10
2022-10-24T05:03:44.124Z,5.50
2022-10-24T05:06:19.379Z,6.67
2022-10-24T05:08:59.315Z,6.05
2022-10-24T05:11:35.660Z,6.78
2022-10-24T05:14:14.542Z,8.95
2022-10-24T05:16:53.125Z,7.40
2022-10-24T05:19:31.929Z,4.90
2022-10-24T05:22:10.735Z,6.42
2022-10-24T05:24:46.894Z,6.05
2022-10-24T05:27:24.431Z,5.72
2022-10-24T05:30:01.167Z,6.42
2022-10-24T05:32:38.747Z,6.35
2022-10-24T05:35:13.915Z,6.42
2022-10-24T05:38:05.990Z,8.10
2022-10-24T05:40:40.990Z,8.35
2022-10-24T05:43:14.446Z,6.85
2022-10-24T05:45:54.203Z,7.53
2022-10-24T05:48:28.296Z,8.63
2022-10-24T05:51:03.200Z,9.05
2022-10-24T05:53:37.992Z,8.98
2022-10-24T05:56:14.805Z,8.35
2022-10-24T06:01:37.212Z,7.17
2022-10-24T06:04:18.773Z,6.75
2022-10-24T06:06:57.510Z,6.28
2022-10-24T06:09:37.437Z,8.18
2022-10-24T06:12:12.919Z,5.67
2022-10-24T06:14:48.033Z,7.00
2022-10-24T06:17:25.850Z,7.62
2022-10-24T06:19:58.990Z,4.70
2022-10-24T06:22:34.165Z,7.03
2022-10-24T06:25:08.142Z,5.72
2022-10-24T06:27:43.685Z,8.30
2022-10-24T06:30:19.808Z,8.10
2022-10-24T06:32:54.446Z,5.30
2022-10-24T06:35:31.633Z,6.60
2022-10-24T06:38:04.692Z,6.70
2022-10-24T06:40:49.849Z,6.78
2022-10-24T06:43:23.282Z,5.25
2022-10-24T06:45:58.946Z,6.12
2022-10-24T06:48:32.058Z,6.20
2022-10-24T06:51:08.514Z,6.67
2022-10-24T06:53:45.014Z,5.15
2022-10-24T06:56:19.808Z,7.12
2022-10-24T06:58:55.954Z,6.87
2022-10-24T07:01:32.887Z,6.65
2022-10-24T07:04:08.359Z,6.50
2022-10-24T07:06:44.715Z,6.45
2022-10-24T07:09:21.046Z,6.25
2022-10-24T07:11:54.240Z,5.25
2022-10-24T07:14:29.905Z,5.58
2022-10-24T07:19:55.750Z,5.45
2022-10-24T07:22:31.366Z,5.90
2022-10-24T07:25:05.439Z,4.15
2022-10-24T07:27:46.121Z,5.25
2022-10-24T07:30:23.512Z,4.67
2022-10-24T07:32:58.223Z,5.33
2022-10-24T07:35:49.011Z,5.78
2022-10-24T07:38:26.367Z,5.10
2022-10-24T07:41:00.437Z,5.17
2022-10-24T07:43:33.932Z,5.55
2022-10-24T07:46:09.864Z,4.80
2022-10-24T07:48:53.076Z,4.53
2022-10-24T07:51:31.790Z,2.83
2022-10-24T07:54:06.269Z,2.92
2022-10-24T07:56:39.414Z,3.80
2022-10-24T07:59:29.848Z,2.25
2022-10-24T08:01:47.901Z,2.58
2022-10-24T08:04:21.028Z,3.55
2022-10-24T08:06:54.239Z,3.98
2022-10-24T08:09:28.711Z,4.10
2022-10-24T08:12:01.871Z,3.60
2022-10-24T08:14:34.982Z,4.00
2022-10-24T08:17:08.764Z,3.12
2022-10-24T08:19:44.021Z,4.50
2022-10-24T08:22:17.738Z,4.80
2022-10-24T08:24:50.793Z,3.08
2022-10-24T08:27:23.977Z,3.20
2022-10-24T08:29:57.123Z,3.27
2022-10-24T08:32:30.423Z,3.27
2022-10-24T08:35:03.961Z,3.05
2022-10-24T08:37:38.694Z,3.27
2022-10-24T08:40:16.749Z,3.70
2022-10-24T08:42:50.913Z,3.55
2022-10-24T08:48:12.074Z,2.85
2022-10-24T08:50:48.056Z,3.22
2022-10-24T08:53:31.199Z,3.25
2022-10-24T08:56:06.598Z,3.22
2022-10-24T08:58:43.563Z,3.17
2022-10-24T09:04:02.941Z,2.62
2022-10-24T09:06:36.641Z,2.33
2022-10-24T09:09:14.610Z,2.70
2022-10-24T09:11:51.687Z,2.27
2022-10-24T09:14:27.192Z,2.67
2022-10-24T09:17:03.495Z,2.15
2022-10-24T09:19:37.286Z,2.00
2022-10-24T09:22:13.044Z,1.98
2022-10-24T09:24:49.852Z,1.87
2022-10-24T09:27:26.061Z,1.72
2022-10-24T09:30:00.345Z,1.40
2022-10-24T09:32:37.620Z,1.22
2022-10-24T09:35:15.108Z,1.32
2022-10-24T09:37:50.604Z,1.32
2022-10-24T09:40:26.414Z,1.95
2022-10-24T09:43:02.898Z,1.15
2022-10-24T09:45:41.060Z,1.32
2022-10-24T09:48:29.161Z,1.47
2022-10-24T09:51:00.737Z,1.40
2022-10-24T09:53:36.550Z,1.20
2022-10-24T09:56:13.827Z,1.85
2022-10-24T09:58:46.969Z,1.32
2022-10-24T10:01:23.948Z,1.30
2022-10-24T10:04:09.389Z,0.93
2022-10-24T10:06:44.789Z,1.07
2022-10-24T10:09:22.260Z,1.45
2022-10-24T10:12:03.518Z,1.20
2022-10-24T10:14:36.456Z,1.42
2022-10-24T10:17:12.837Z,1.45
2022-10-24T10:19:49.141Z,1.00
2022-10-24T10:22:29.669Z,0.90
2022-10-24T10:25:03.801Z,1.10
2022-10-24T10:27:39.345Z,1.27
2022-10-24T10:30:23.031Z,1.60
2022-10-24T10:33:13.954Z,1.60
2022-10-24T10:35:52.006Z,1.35
2022-10-24T10:38:38.347Z,1.20
2022-10-24T10:41:16.173Z,1.30
2022-10-24T10:43:55.713Z,0.95
2022-10-24T10:46:32.051Z,1.22
2022-10-24T10:49:10.844Z,0.53
2022-10-24T10:51:47.684Z,0.40
2022-10-24T10:54:29.793Z,0.47
2022-10-24T10:57:07.022Z,1.15
2022-10-24T10:59:56.693Z,1.02
2022-10-24T11:03:06.542Z,0.80
2022-10-24T11:08:35.157Z,0.90
2022-10-24T11:11:12.470Z,1.10
2022-10-24T11:13:49.693Z,0.40
2022-10-24T11:16:26.011Z,0.80
2022-10-24T11:19:03.764Z,1.00
2022-10-24T11:21:39.704Z,0.90
2022-10-24T11:24:16.827Z,0.60
2022-10-24T11:26:52.981Z,0.65
2022-10-24T11:29:31.240Z,0.80
2022-10-24T11:32:07.778Z,0.72
2022-10-24T11:34:44.701Z,0.63
2022-10-24T11:37:21.405Z,0.40
2022-10-24T11:39:58.530Z,0.43
2022-10-24T11:45:12.673Z,0.60
2022-10-24T11:48:10.154Z,0.60
2022-10-24T11:50:49.674Z,0.60
2022-10-24T11:53:48.122Z,0.78
2022-10-24T11:56:27.169Z,0.40
2022-10-24T11:59:04.165Z,0.45
2022-10-24T12:02:02.096Z,0.60
2022-10-24T12:04:58.115Z,1.05
2022-10-24T12:08:05.871Z,0.70
2022-10-24T12:10:51.173Z,0.50
2022-10-24T12:16:43.261Z,1.22
2022-10-24T12:19:19.939Z,1.40
2022-10-24T12:21:56.480Z,1.07
2022-10-24T12:24:34.623Z,0.65
2022-10-24T12:27:13.170Z,0.72
2022-10-24T12:29:46.507Z,0.70
2022-10-24T12:32:28.658Z,0.78
2022-10-24T12:35:28.949Z,0.50
2022-10-24T12:37:40.272Z,0.40
2022-10-24T12:40:48.396Z,0.80
2022-10-24T12:43:34.012Z,0.55
2022-10-24T12:46:43.222Z,0.53
2022-10-24T12:49:37.129Z,0.98
2022-10-24T12:52:44.635Z,0.50
2022-10-24T12:55:50.058Z,0.70
2022-10-24T12:58:26.853Z,1.05
2022-10-24T13:01:02.892Z,0.67
2022-10-24T13:04:21.006Z,0.62
2022-10-24T13:07:21.171Z,0.50
2022-10-24T13:12:51.133Z,0.60
2022-10-24T13:15:31.399Z,0.90
2022-10-24T13:18:17.825Z,0.80
2022-10-24T13:20:55.232Z,0.30
2022-10-24T13:23:30.614Z,0.60
2022-10-24T13:26:05.702Z,0.57
2022-10-24T13:28:43.567Z,0.98
2022-10-24T13:34:34.299Z,1.07
2022-10-24T13:37:16.859Z,0.82
2022-10-24T13:39:53.468Z,0.65
2022-10-24T13:42:36.306Z,1.27
2022-10-24T13:45:18.813Z,1.10
2022-10-24T13:47:55.218Z,0.93
2022-10-24T13:50:31.748Z,1.17
2022-10-24T13:53:08.834Z,1.00
2022-10-24T13:55:48.189Z,0.85
2022-10-24T13:58:24.065Z,1.65
2022-10-24T14:01:00.262Z,0.65
2022-10-24T14:03:37.552Z,1.17
2022-10-24T14:06:11.330Z,1.07
2022-10-24T14:08:59.698Z,2.55
2022-10-24T14:14:09.239Z,2.00
2022-10-24T14:16:42.077Z,1.70
2022-10-24T14:19:27.116Z,1.15
2022-10-24T14:21:57.174Z,1.90
2022-10-24T14:24:32.739Z,1.20
2022-10-24T14:27:06.744Z,1.80
2022-10-24T14:29:41.929Z,1.65
2022-10-24T14:32:17.903Z,2.25
2022-10-24T14:34:54.509Z,1.40
2022-10-24T14:37:36.723Z,1.60
2022-10-24T14:40:18.493Z,2.30
2022-10-24T14:42:52.169Z,2.00
2022-10-24T14:45:27.696Z,2.10
2022-10-24T14:48:03.597Z,2.33
2022-10-24T14:50:41.184Z,1.70
2022-10-24T14:53:26.966Z,1.92
2022-10-24T14:56:03.456Z,2.15
2022-10-24T14:58:39.320Z,2.08
2022-10-24T15:01:21.122Z,2.50
2022-10-24T15:03:55.829Z,2.52
2022-10-24T15:06:30.633Z,2.15
2022-10-24T15:09:07.106Z,3.10
2022-10-24T15:11:43.276Z,2.60
2022-10-24T15:14:36.681Z,2.52
2022-10-24T15:20:05.387Z,2.30
2022-10-24T15:22:43.535Z,1.47
2022-10-24T15:25:23.721Z,2.00
2022-10-24T15:27:58.617Z,2.05
2022-10-24T15:30:34.131Z,1.80
2022-10-24T15:33:09.556Z,2.10
2022-10-24T15:35:43.960Z,2.35
2022-10-24T15:38:18.939Z,2.10
2022-10-24T15:40:52.827Z,2.22
2022-10-24T15:43:26.219Z,2.62
2022-10-24T15:45:59.331Z,1.72
2022-10-24T15:48:32.549Z,2.10
2022-10-24T15:51:08.277Z,2.08
2022-10-24T15:53:42.082Z,1.90
2022-10-24T15:56:15.771Z,2.50
2022-10-24T16:01:28.981Z,2.70
2022-10-24T16:04:03.379Z,2.50
2022-10-24T16:06:36.552Z,2.17
2022-10-24T16:09:15.312Z,2.75
2022-10-24T16:11:48.919Z,2.45
2022-10-24T16:14:25.954Z,2.70
2022-10-24T16:16:59.309Z,2.35
2022-10-24T16:19:32.382Z,3.33
2022-10-24T16:22:07.285Z,3.17
2022-10-24T16:24:40.529Z,4.10
2022-10-24T16:27:17.953Z,3.22
2022-10-24T16:29:55.012Z,3.35
2022-10-24T16:32:28.994Z,2.67
2022-10-24T16:35:02.916Z,5.08
2022-10-24T16:37:36.512Z,4.35
2022-10-24T16:40:22.937Z,3.75
2022-10-24T16:42:58.374Z,3.35
2022-10-24T16:45:41.582Z,4.28
2022-10-24T16:48:16.501Z,5.45
2022-10-24T16:50:54.984Z,3.30
2022-10-24T16:53:29.658Z,4.00
2022-10-24T16:56:05.166Z,4.72
2022-10-24T16:58:41.622Z,4.05
2022-10-24T17:01:16.948Z,4.78
2022-10-24T17:03:52.806Z,5.85
2022-10-24T17:06:34.624Z,4.97
2022-10-24T17:09:07.959Z,4.50
2022-10-24T17:11:46.477Z,4.33
2022-10-24T17:14:17.442Z,4.60
2022-10-24T17:16:50.623Z,4.72
2022-10-24T17:19:23.728Z,3.92
2022-10-24T17:21:59.030Z,4.80
2022-10-24T17:24:33.736Z,4.62
2022-10-24T17:27:09.522Z,4.22
2022-10-24T17:29:45.069Z,4.10
2022-10-24T17:32:18.965Z,5.50
2022-10-24T17:34:53.876Z,5.10
2022-10-24T17:37:30.966Z,4.05
2022-10-24T17:40:07.365Z,4.57
2022-10-24T17:42:41.555Z,4.42
2022-10-24T17:45:18.378Z,4.97
2022-10-24T17:47:53.777Z,3.72
2022-10-24T17:50:26.956Z,5.12
2022-10-24T17:53:00.271Z,4.67
2022-10-24T17:55:45.552Z,4.10
2022-10-24T17:58:08.994Z,4.55
2022-10-24T18:00:42.288Z,4.05
2022-10-24T18:03:16.253Z,4.30
2022-10-24T18:05:49.396Z,4.15
2022-10-24T18:08:22.547Z,4.42
2022-10-24T18:10:55.832Z,4.08
2022-10-24T18:13:28.965Z,4.65
2022-10-24T18:16:03.648Z,4.75
2022-10-24T18:18:39.502Z,4.47
2022-10-24T18:21:15.952Z,5.30
2022-10-24T18:23:49.501Z,5.08
2022-10-24T18:26:27.513Z,5.17
2022-10-24T18:29:00.922Z,5.00
2022-10-24T18:31:35.010Z,4.45
2022-10-24T18:34:08.926Z,4.35
2022-10-24T18:36:42.343Z,4.00
2022-10-24T18:39:15.574Z,4.28
2022-10-24T18:41:52.337Z,4.78
2022-10-24T18:44:29.925Z,4.53
2022-10-24T18:47:06.974Z,5.17
2022-10-24T18:49:41.774Z,4.53
2022-10-24T18:52:20.322Z,3.60
2022-10-24T18:54:59.540Z,4.30
2022-10-24T18:57:37.498Z,3.80
2022-10-24T19:00:16.775Z,3.72
2022-10-24T19:02:57.621Z,4.12
2022-10-24T19:08:33.434Z,6.60
2022-10-24T19:11:13.190Z,3.65
2022-10-24T19:16:39.860Z,3.90
2022-10-24T19:19:22.806Z,3.72
2022-10-24T19:22:04.480Z,3.80
2022-10-24T19:24:38.388Z,3.85
2022-10-24T19:27:12.010Z,3.95
2022-10-24T19:29:46.905Z,3.33
2022-10-24T19:32:20.209Z,3.95
2022-10-24T19:35:00.822Z,3.55
2022-10-24T19:37:35.197Z,4.22
2022-10-24T19:40:13.179Z,4.00
2022-10-24T19:42:48.959Z,3.42
2022-10-24T19:45:25.090Z,6.47
2022-10-24T19:48:03.457Z,5.42
2022-10-24T19:50:37.504Z,6.78
2022-10-24T19:56:12.570Z,4.15
2022-10-24T19:58:49.085Z,5.05
2022-10-24T20:01:25.940Z,5.58
2022-10-24T20:04:02.244Z,4.60
2022-10-24T20:06:36.519Z,5.00
2022-10-24T20:09:10.329Z,4.80
2022-10-24T20:11:43.938Z,5.42
2022-10-24T20:14:17.545Z,4.90
2022-10-24T20:16:51.866Z,5.35
2022-10-24T20:19:25.069Z,4.80
2022-10-24T20:22:01.619Z,5.55
2022-10-24T20:24:34.069Z,4.80
2022-10-24T20:27:07.510Z,4.60
2022-10-24T20:29:41.319Z,4.45
2022-10-24T20:32:14.676Z,4.62
2022-10-24T20:34:47.900Z,3.55
2022-10-24T20:37:21.553Z,3.70
2022-10-24T20:39:55.721Z,3.85
2022-10-24T20:42:29.112Z,4.08
2022-10-24T20:45:02.215Z,3.80
2022-10-24T20:47:36.846Z,4.03
2022-10-24T20:50:11.523Z,4.40
2022-10-24T20:52:45.343Z,4.67
2022-10-24T20:55:31.673Z,4.08
2022-10-24T20:57:55.217Z,4.20
2022-10-24T21:00:28.609Z,4.03
2022-10-24T21:03:01.789Z,3.72
2022-10-24T21:05:36.839Z,4.55
2022-10-24T21:08:10.006Z,5.15
2022-10-24T21:10:43.102Z,4.47
2022-10-24T21:13:16.288Z,5.30
2022-10-24T21:15:49.715Z,5.05
2022-10-24T21:18:23.189Z,5.08
2022-10-24T21:20:56.266Z,4.83
2022-10-24T21:23:29.762Z,6.85
2022-10-24T21:26:08.072Z,7.83
2022-10-24T21:28:42.001Z,7.40
2022-10-24T21:31:16.907Z,6.40
2022-10-24T21:33:50.811Z,7.03
2022-10-24T21:36:25.531Z,6.20
2022-10-24T21:39:00.333Z,5.87
2022-10-24T21:41:34.578Z,7.53
2022-10-24T21:44:07.990Z,6.95
2022-10-24T21:46:41.750Z,5.90
2022-10-24T21:49:15.301Z,6.72
2022-10-24T21:51:49.715Z,5.08
2022-10-24T21:54:24.934Z,6.28
2022-10-24T21:56:58.355Z,5.90
2022-10-24T21:59:32.121Z,6.70
2022-10-24T22:02:06.410Z,5.45
2022-10-24T22:04:39.960Z,5.97
2022-10-24T22:07:13.564Z,5.25
2022-10-24T22:09:47.025Z,6.45
2022-10-24T22:12:20.711Z,7.03
2022-10-24T22:14:53.748Z,5.67
2022-10-24T22:17:27.107Z,5.92
2022-10-24T22:20:00.577Z,6.47
2022-10-24T22:22:34.150Z,5.25
2022-10-24T22:25:09.543Z,5.65
2022-10-24T22:27:43.071Z,5.33
2022-10-24T22:30:17.199Z,4.85
2022-10-24T22:32:51.689Z,5.35
2022-10-24T22:35:26.354Z,9.15
2022-10-24T22:38:00.849Z,15.13
2022-10-24T22:40:35.531Z,12.95
2022-10-24T22:43:10.081Z,11.75
2022-10-24T22:45:46.506Z,9.58
2022-10-24T22:48:22.792Z,8.95
2022-10-24T22:50:58.324Z,5.90
2022-10-24T22:53:33.193Z,5.30
2022-10-24T22:56:19.536Z,6.47
2022-10-24T22:58:54.479Z,5.03
2022-10-24T23:01:38.203Z,6.15
2022-10-24T23:04:19.477Z,4.12
2022-10-24T23:06:55.640Z,5.03
2022-10-24T23:09:29.086Z,5.08
2022-10-24T23:12:03.540Z,6.60
2022-10-24T23:14:38.115Z,5.35
2022-10-24T23:17:12.916Z,5.45
2022-10-24T23:19:48.271Z,4.40
2022-10-24T23:22:25.095Z,5.53
2022-10-24T23:25:01.089Z,5.67
2022-10-24T23:27:39.432Z,4.85
2022-10-24T23:30:18.299Z,4.25
2022-10-24T23:32:53.246Z,5.00
2022-10-24T23:35:28.087Z,5.37
2022-10-24T23:38:02.547Z,4.30
2022-10-24T23:40:37.520Z,6.10
2022-10-24T23:43:15.293Z,4.70
2022-10-24T23:45:51.835Z,4.40
2022-10-24T23:48:29.159Z,4.75
2022-10-24T23:51:06.542Z,4.37
2022-10-24T23:53:50.413Z,5.08
2022-10-24T23:56:26.347Z,5.35
2022-10-24T23:58:59.704Z,5.25
